sensor_id;sensor_type;location;lat;lon;timestamp;P1;durP1;ratioP1;P2;durP2;ratioP2
68858;SDS011;55864;49.238;8.092;2023-11-19T00:01:17;5.97;;;2.87;;
68858;SDS011;55864;49.238;8.092;2023-11-19T00:03:18;6.63;;;2.47;;
68858;SDS011;55864;49.238;8.092;2023-11-19T00:05:18;5.57;;;2.30;;
68858;SDS011;55864;49.238;8.092;2023-11-19T00:07:19;5.50;;;2.27;;
68858;SDS011;55864;49.238;8.092;2023-11-19T00:09:20;5.73;;;2.20;;
68858;SDS011;55864;49.238;8.092;2023-11-19T00:11:20;5.17;;;2.30;;
68858;SDS011;55864;49.238;8.092;2023-11-19T00:13:21;6.57;;;2.10;;
68858;SDS011;55864;49.238;8.092;2023-11-19T00:15:21;5.27;;;2.27;;
68858;SDS011;55864;49.238;8.092;2023-11-19T00:17:23;4.53;;;1.87;;
68858;SDS011;55864;49.238;8.092;2023-11-19T00:19:23;4.90;;;2.00;;
68858;SDS011;55864;49.238;8.092;2023-11-19T00:21:24;3.90;;;1.60;;
68858;SDS011;55864;49.238;8.092;2023-11-19T00:23:25;4.73;;;1.77;;
68858;SDS011;55864;49.238;8.092;2023-11-19T00:25:25;6.03;;;1.70;;
68858;SDS011;55864;49.238;8.092;2023-11-19T00:27:26;4.40;;;1.93;;
68858;SDS011;55864;49.238;8.092;2023-11-19T00:29:26;4.20;;;1.83;;
68858;SDS011;55864;49.238;8.092;2023-11-19T00:31:27;4.00;;;1.70;;
68858;SDS011;55864;49.238;8.092;2023-11-19T00:33:28;3.67;;;1.73;;
68858;SDS011;55864;49.238;8.092;2023-11-19T00:35:29;5.63;;;2.07;;
68858;SDS011;55864;49.238;8.092;2023-11-19T00:37:29;3.17;;;1.30;;
68858;SDS011;55864;49.238;8.092;2023-11-19T00:39:30;3.60;;;1.43;;
68858;SDS011;55864;49.238;8.092;2023-11-19T00:41:34;3.93;;;1.60;;
68858;SDS011;55864;49.238;8.092;2023-11-19T00:43:34;4.73;;;1.50;;
68858;SDS011;55864;49.238;8.092;2023-11-19T00:45:35;3.90;;;1.47;;
68858;SDS011;55864;49.238;8.092;2023-11-19T00:47:35;5.33;;;1.37;;
68858;SDS011;55864;49.238;8.092;2023-11-19T00:49:37;2.93;;;1.40;;
68858;SDS011;55864;49.238;8.092;2023-11-19T00:51:38;3.70;;;1.50;;
68858;SDS011;55864;49.238;8.092;2023-11-19T00:53:38;4.20;;;1.40;;
68858;SDS011;55864;49.238;8.092;2023-11-19T00:55:39;2.97;;;1.30;;
68858;SDS011;55864;49.238;8.092;2023-11-19T00:57:39;4.67;;;1.20;;
68858;SDS011;55864;49.238;8.092;2023-11-19T00:59:41;3.33;;;1.30;;
68858;SDS011;55864;49.238;8.092;2023-11-19T01:01:42;2.23;;;1.00;;
68858;SDS011;55864;49.238;8.092;2023-11-19T01:03:42;3.87;;;1.10;;
68858;SDS011;55864;49.238;8.092;2023-11-19T01:05:44;1.40;;;0.93;;
68858;SDS011;55864;49.238;8.092;2023-11-19T01:07:44;1.47;;;0.90;;
68858;SDS011;55864;49.238;8.092;2023-11-19T01:09:45;1.60;;;0.90;;
68858;SDS011;55864;49.238;8.092;2023-11-19T01:11:46;1.43;;;1.00;;
68858;SDS011;55864;49.238;8.092;2023-11-19T01:13:46;1.57;;;0.90;;
68858;SDS011;55864;49.238;8.092;2023-11-19T01:15:49;1.02;;;0.88;;
68858;SDS011;55864;49.238;8.092;2023-11-19T01:17:50;1.47;;;0.83;;
68858;SDS011;55864;49.238;8.092;2023-11-19T01:19:50;1.30;;;0.70;;
68858;SDS011;55864;49.238;8.092;2023-11-19T01:21:52;1.43;;;0.90;;
68858;SDS011;55864;49.238;8.092;2023-11-19T01:23:53;1.83;;;0.87;;
68858;SDS011;55864;49.238;8.092;2023-11-19T01:25:53;0.80;;;0.80;;
68858;SDS011;55864;49.238;8.092;2023-11-19T01:27:54;1.37;;;0.90;;
68858;SDS011;55864;49.238;8.092;2023-11-19T01:29:54;1.27;;;0.83;;
68858;SDS011;55864;49.238;8.092;2023-11-19T01:31:56;1.60;;;0.77;;
68858;SDS011;55864;49.238;8.092;2023-11-19T01:33:56;1.10;;;0.70;;
68858;SDS011;55864;49.238;8.092;2023-11-19T01:35:59;2.10;;;0.82;;
68858;SDS011;55864;49.238;8.092;2023-11-19T01:38:01;0.80;;;0.80;;
68858;SDS011;55864;49.238;8.092;2023-11-19T01:40:02;1.10;;;0.80;;
68858;SDS011;55864;49.238;8.092;2023-11-19T01:42:03;1.07;;;0.80;;
68858;SDS011;55864;49.238;8.092;2023-11-19T01:44:05;1.07;;;0.70;;
68858;SDS011;55864;49.238;8.092;2023-11-19T01:46:06;1.13;;;0.87;;
68858;SDS011;55864;49.238;8.092;2023-11-19T01:48:07;1.10;;;0.80;;
68858;SDS011;55864;49.238;8.092;2023-11-19T01:50:07;1.10;;;0.80;;
68858;SDS011;55864;49.238;8.092;2023-11-19T01:52:09;0.80;;;0.80;;
68858;SDS011;55864;49.238;8.092;2023-11-19T01:54:11;1.40;;;0.83;;
68858;SDS011;55864;49.238;8.092;2023-11-19T01:56:13;2.20;;;0.90;;
68858;SDS011;55864;49.238;8.092;2023-11-19T01:58:15;1.47;;;1.00;;
68858;SDS011;55864;49.238;8.092;2023-11-19T02:00:19;1.07;;;0.80;;
68858;SDS011;55864;49.238;8.092;2023-11-19T02:02:20;1.40;;;0.90;;
68858;SDS011;55864;49.238;8.092;2023-11-19T02:04:20;2.63;;;1.10;;
68858;SDS011;55864;49.238;8.092;2023-11-19T02:06:21;1.47;;;1.00;;
68858;SDS011;55864;49.238;8.092;2023-11-19T02:08:23;3.07;;;1.10;;
68858;SDS011;55864;49.238;8.092;2023-11-19T02:10:25;3.67;;;1.20;;
68858;SDS011;55864;49.238;8.092;2023-11-19T02:12:25;3.67;;;1.40;;
68858;SDS011;55864;49.238;8.092;2023-11-19T02:14:26;4.10;;;1.30;;
68858;SDS011;55864;49.238;8.092;2023-11-19T02:16:27;2.67;;;1.23;;
68858;SDS011;55864;49.238;8.092;2023-11-19T02:18:27;2.47;;;1.20;;
68858;SDS011;55864;49.238;8.092;2023-11-19T02:20:28;2.17;;;1.10;;
68858;SDS011;55864;49.238;8.092;2023-11-19T02:22:29;3.60;;;1.30;;
68858;SDS011;55864;49.238;8.092;2023-11-19T02:24:30;2.57;;;1.20;;
68858;SDS011;55864;49.238;8.092;2023-11-19T02:26:35;3.43;;;1.50;;
68858;SDS011;55864;49.238;8.092;2023-11-19T02:28:44;2.60;;;1.23;;
68858;SDS011;55864;49.238;8.092;2023-11-19T02:30:45;3.10;;;1.40;;
68858;SDS011;55864;49.238;8.092;2023-11-19T02:32:45;3.07;;;1.40;;
68858;SDS011;55864;49.238;8.092;2023-11-19T02:34:46;3.03;;;1.40;;
68858;SDS011;55864;49.238;8.092;2023-11-19T02:36:47;2.73;;;1.27;;
68858;SDS011;55864;49.238;8.092;2023-11-19T02:38:47;3.60;;;1.43;;
68858;SDS011;55864;49.238;8.092;2023-11-19T02:40:48;3.97;;;1.50;;
68858;SDS011;55864;49.238;8.092;2023-11-19T02:42:48;2.40;;;1.20;;
68858;SDS011;55864;49.238;8.092;2023-11-19T02:44:50;3.20;;;1.30;;
68858;SDS011;55864;49.238;8.092;2023-11-19T02:46:50;3.13;;;1.30;;
68858;SDS011;55864;49.238;8.092;2023-11-19T02:48:52;2.07;;;1.20;;
68858;SDS011;55864;49.238;8.092;2023-11-19T02:50:52;2.67;;;1.20;;
68858;SDS011;55864;49.238;8.092;2023-11-19T02:52:55;2.40;;;1.30;;
68858;SDS011;55864;49.238;8.092;2023-11-19T02:54:56;2.43;;;1.20;;
68858;SDS011;55864;49.238;8.092;2023-11-19T02:56:57;2.40;;;1.20;;
68858;SDS011;55864;49.238;8.092;2023-11-19T02:58:57;3.17;;;1.30;;
68858;SDS011;55864;49.238;8.092;2023-11-19T03:00:59;3.40;;;1.27;;
68858;SDS011;55864;49.238;8.092;2023-11-19T03:02:59;2.53;;;1.30;;
68858;SDS011;55864;49.238;8.092;2023-11-19T03:05:00;3.13;;;1.23;;
68858;SDS011;55864;49.238;8.092;2023-11-19T03:07:02;4.37;;;1.33;;
68858;SDS011;55864;49.238;8.092;2023-11-19T03:09:03;3.97;;;1.30;;
68858;SDS011;55864;49.238;8.092;2023-11-19T03:11:03;3.07;;;1.37;;
68858;SDS011;55864;49.238;8.092;2023-11-19T03:13:04;2.97;;;1.23;;
68858;SDS011;55864;49.238;8.092;2023-11-19T03:15:05;2.27;;;1.00;;
68858;SDS011;55864;49.238;8.092;2023-11-19T03:17:08;2.73;;;1.27;;
68858;SDS011;55864;49.238;8.092;2023-11-19T03:19:08;2.23;;;1.20;;
68858;SDS011;55864;49.238;8.092;2023-11-19T03:21:09;2.80;;;1.30;;
68858;SDS011;55864;49.238;8.092;2023-11-19T03:23:09;2.83;;;1.20;;
68858;SDS011;55864;49.238;8.092;2023-11-19T03:25:10;2.60;;;1.30;;
68858;SDS011;55864;49.238;8.092;2023-11-19T03:27:11;3.43;;;1.43;;
68858;SDS011;55864;49.238;8.092;2023-11-19T03:29:11;2.77;;;1.40;;
68858;SDS011;55864;49.238;8.092;2023-11-19T03:31:12;3.43;;;1.33;;
68858;SDS011;55864;49.238;8.092;2023-11-19T03:33:13;3.70;;;1.60;;
68858;SDS011;55864;49.238;8.092;2023-11-19T03:35:15;3.97;;;1.63;;
68858;SDS011;55864;49.238;8.092;2023-11-19T03:37:15;4.97;;;2.10;;
68858;SDS011;55864;49.238;8.092;2023-11-19T03:39:17;3.80;;;1.73;;
68858;SDS011;55864;49.238;8.092;2023-11-19T03:41:17;4.23;;;1.80;;
68858;SDS011;55864;49.238;8.092;2023-11-19T03:43:18;4.07;;;1.80;;
68858;SDS011;55864;49.238;8.092;2023-11-19T03:45:19;4.33;;;2.00;;
68858;SDS011;55864;49.238;8.092;2023-11-19T03:47:19;5.27;;;2.07;;
68858;SDS011;55864;49.238;8.092;2023-11-19T03:49:21;5.27;;;2.30;;
68858;SDS011;55864;49.238;8.092;2023-11-19T03:51:22;5.40;;;2.30;;
68858;SDS011;55864;49.238;8.092;2023-11-19T03:53:22;7.87;;;2.70;;
68858;SDS011;55864;49.238;8.092;2023-11-19T03:55:23;6.00;;;2.63;;
68858;SDS011;55864;49.238;8.092;2023-11-19T03:57:23;5.00;;;2.23;;
68858;SDS011;55864;49.238;8.092;2023-11-19T04:01:27;5.07;;;2.10;;
68858;SDS011;55864;49.238;8.092;2023-11-19T04:03:28;5.60;;;2.53;;
68858;SDS011;55864;49.238;8.092;2023-11-19T04:05:29;5.70;;;2.70;;
68858;SDS011;55864;49.238;8.092;2023-11-19T04:09:32;3.80;;;1.30;;
68858;SDS011;55864;49.238;8.092;2023-11-19T04:11:32;3.00;;;1.33;;
68858;SDS011;55864;49.238;8.092;2023-11-19T04:13:33;4.90;;;1.23;;
68858;SDS011;55864;49.238;8.092;2023-11-19T04:15:33;3.17;;;1.30;;
68858;SDS011;55864;49.238;8.092;2023-11-19T04:17:34;2.60;;;1.27;;
68858;SDS011;55864;49.238;8.092;2023-11-19T04:19:34;2.37;;;1.20;;
68858;SDS011;55864;49.238;8.092;2023-11-19T04:21:36;3.33;;;1.33;;
68858;SDS011;55864;49.238;8.092;2023-11-19T04:23:37;2.40;;;1.30;;
68858;SDS011;55864;49.238;8.092;2023-11-19T04:25:37;3.57;;;1.30;;
68858;SDS011;55864;49.238;8.092;2023-11-19T04:27:38;2.17;;;1.20;;
68858;SDS011;55864;49.238;8.092;2023-11-19T04:29:38;3.37;;;1.27;;
68858;SDS011;55864;49.238;8.092;2023-11-19T04:31:39;3.27;;;1.40;;
68858;SDS011;55864;49.238;8.092;2023-11-19T04:33:39;2.40;;;1.20;;
68858;SDS011;55864;49.238;8.092;2023-11-19T04:35:40;3.80;;;1.80;;
68858;SDS011;55864;49.238;8.092;2023-11-19T04:37:42;3.43;;;1.23;;
68858;SDS011;55864;49.238;8.092;2023-11-19T04:39:43;2.37;;;1.10;;
68858;SDS011;55864;49.238;8.092;2023-11-19T04:41:47;3.35;;;1.30;;
68858;SDS011;55864;49.238;8.092;2023-11-19T04:43:48;4.53;;;1.30;;
68858;SDS011;55864;49.238;8.092;2023-11-19T04:45:48;2.47;;;1.20;;
68858;SDS011;55864;49.238;8.092;2023-11-19T04:47:49;2.75;;;1.27;;
68858;SDS011;55864;49.238;8.092;2023-11-19T04:49:49;2.67;;;1.27;;
68858;SDS011;55864;49.238;8.092;2023-11-19T04:51:50;2.47;;;1.20;;
68858;SDS011;55864;49.238;8.092;2023-11-19T04:53:52;4.00;;;1.37;;
68858;SDS011;55864;49.238;8.092;2023-11-19T04:55:52;2.80;;;1.20;;
68858;SDS011;55864;49.238;8.092;2023-11-19T04:57:53;2.42;;;1.20;;
68858;SDS011;55864;49.238;8.092;2023-11-19T04:59:54;4.05;;;1.10;;
68858;SDS011;55864;49.238;8.092;2023-11-19T05:01:55;2.60;;;1.10;;
68858;SDS011;55864;49.238;8.092;2023-11-19T05:03:56;2.50;;;1.17;;
68858;SDS011;55864;49.238;8.092;2023-11-19T05:06:03;3.27;;;1.20;;
68858;SDS011;55864;49.238;8.092;2023-11-19T05:08:04;2.38;;;1.13;;
68858;SDS011;55864;49.238;8.092;2023-11-19T05:10:07;3.40;;;1.40;;
68858;SDS011;55864;49.238;8.092;2023-11-19T05:12:08;3.03;;;1.30;;
68858;SDS011;55864;49.238;8.092;2023-11-19T05:14:08;4.97;;;1.48;;
68858;SDS011;55864;49.238;8.092;2023-11-19T05:16:09;3.97;;;1.35;;
68858;SDS011;55864;49.238;8.092;2023-11-19T05:18:09;3.47;;;1.40;;
68858;SDS011;55864;49.238;8.092;2023-11-19T05:20:10;3.67;;;1.40;;
68858;SDS011;55864;49.238;8.092;2023-11-19T05:22:11;3.57;;;1.30;;
68858;SDS011;55864;49.238;8.092;2023-11-19T05:24:11;5.47;;;1.50;;
68858;SDS011;55864;49.238;8.092;2023-11-19T05:26:19;3.67;;;1.40;;
68858;SDS011;55864;49.238;8.092;2023-11-19T05:28:22;3.50;;;1.40;;
68858;SDS011;55864;49.238;8.092;2023-11-19T05:30:22;3.47;;;1.58;;
68858;SDS011;55864;49.238;8.092;2023-11-19T05:32:23;3.50;;;1.30;;
68858;SDS011;55864;49.238;8.092;2023-11-19T05:34:23;3.57;;;1.50;;
68858;SDS011;55864;49.238;8.092;2023-11-19T05:36:24;3.05;;;1.30;;
68858;SDS011;55864;49.238;8.092;2023-11-19T05:38:24;7.50;;;1.60;;
68858;SDS011;55864;49.238;8.092;2023-11-19T05:40:25;4.35;;;1.45;;
68858;SDS011;55864;49.238;8.092;2023-11-19T05:42:27;5.38;;;1.40;;
68858;SDS011;55864;49.238;8.092;2023-11-19T05:44:27;3.45;;;1.20;;
68858;SDS011;55864;49.238;8.092;2023-11-19T05:46:28;4.85;;;1.20;;
68858;SDS011;55864;49.238;8.092;2023-11-19T05:48:28;4.88;;;1.40;;
68858;SDS011;55864;49.238;8.092;2023-11-19T05:50:29;3.65;;;1.20;;
68858;SDS011;55864;49.238;8.092;2023-11-19T05:52:29;4.63;;;1.60;;
68858;SDS011;55864;49.238;8.092;2023-11-19T05:54:32;5.03;;;1.30;;
68858;SDS011;55864;49.238;8.092;2023-11-19T05:56:33;2.85;;;1.23;;
68858;SDS011;55864;49.238;8.092;2023-11-19T05:58:35;5.20;;;1.30;;
68858;SDS011;55864;49.238;8.092;2023-11-19T06:00:36;5.78;;;1.65;;
68858;SDS011;55864;49.238;8.092;2023-11-19T06:02:36;3.08;;;1.20;;
68858;SDS011;55864;49.238;8.092;2023-11-19T06:04:37;3.13;;;1.10;;
68858;SDS011;55864;49.238;8.092;2023-11-19T06:06:37;2.53;;;1.10;;
68858;SDS011;55864;49.238;8.092;2023-11-19T06:08:38;4.07;;;1.20;;
68858;SDS011;55864;49.238;8.092;2023-11-19T06:10:38;3.33;;;1.30;;
68858;SDS011;55864;49.238;8.092;2023-11-19T06:12:39;3.20;;;1.53;;
68858;SDS011;55864;49.238;8.092;2023-11-19T06:14:41;3.13;;;1.20;;
68858;SDS011;55864;49.238;8.092;2023-11-19T06:16:41;4.72;;;1.40;;
68858;SDS011;55864;49.238;8.092;2023-11-19T06:18:42;2.40;;;1.10;;
68858;SDS011;55864;49.238;8.092;2023-11-19T06:20:42;3.47;;;1.23;;
68858;SDS011;55864;49.238;8.092;2023-11-19T06:22:43;4.17;;;1.50;;
68858;SDS011;55864;49.238;8.092;2023-11-19T06:24:43;3.50;;;1.20;;
68858;SDS011;55864;49.238;8.092;2023-11-19T06:26:44;7.00;;;1.30;;
68858;SDS011;55864;49.238;8.092;2023-11-19T06:28:45;3.35;;;1.20;;
68858;SDS011;55864;49.238;8.092;2023-11-19T06:30:46;3.47;;;1.30;;
68858;SDS011;55864;49.238;8.092;2023-11-19T06:32:47;3.08;;;1.27;;
68858;SDS011;55864;49.238;8.092;2023-11-19T06:34:47;3.17;;;1.23;;
68858;SDS011;55864;49.238;8.092;2023-11-19T06:36:48;2.55;;;1.25;;
68858;SDS011;55864;49.238;8.092;2023-11-19T06:38:48;5.13;;;1.30;;
68858;SDS011;55864;49.238;8.092;2023-11-19T06:40:49;4.10;;;1.60;;
68858;SDS011;55864;49.238;8.092;2023-11-19T06:42:49;4.50;;;1.20;;
68858;SDS011;55864;49.238;8.092;2023-11-19T06:44:50;4.10;;;1.50;;
68858;SDS011;55864;49.238;8.092;2023-11-19T06:46:52;3.72;;;1.20;;
68858;SDS011;55864;49.238;8.092;2023-11-19T06:48:52;3.33;;;1.30;;
68858;SDS011;55864;49.238;8.092;2023-11-19T06:50:53;3.58;;;1.35;;
68858;SDS011;55864;49.238;8.092;2023-11-19T06:52:53;2.28;;;1.00;;
68858;SDS011;55864;49.238;8.092;2023-11-19T06:54:54;4.53;;;1.30;;
68858;SDS011;55864;49.238;8.092;2023-11-19T06:56:54;3.65;;;1.25;;
68858;SDS011;55864;49.238;8.092;2023-11-19T06:58:55;4.63;;;1.42;;
68858;SDS011;55864;49.238;8.092;2023-11-19T07:00:55;3.90;;;1.58;;
68858;SDS011;55864;49.238;8.092;2023-11-19T07:02:57;3.92;;;1.40;;
68858;SDS011;55864;49.238;8.092;2023-11-19T07:04:58;2.42;;;1.20;;
68858;SDS011;55864;49.238;8.092;2023-11-19T07:06:58;4.45;;;1.20;;
68858;SDS011;55864;49.238;8.092;2023-11-19T07:08:59;4.07;;;1.35;;
68858;SDS011;55864;49.238;8.092;2023-11-19T07:11:00;4.18;;;1.40;;
68858;SDS011;55864;49.238;8.092;2023-11-19T07:13:00;3.20;;;1.27;;
68858;SDS011;55864;49.238;8.092;2023-11-19T07:15:01;3.50;;;1.30;;
68858;SDS011;55864;49.238;8.092;2023-11-19T07:17:02;3.38;;;1.50;;
68858;SDS011;55864;49.238;8.092;2023-11-19T07:19:04;3.17;;;1.23;;
68858;SDS011;55864;49.238;8.092;2023-11-19T07:21:05;2.00;;;1.10;;
68858;SDS011;55864;49.238;8.092;2023-11-19T07:23:06;3.17;;;1.20;;
68858;SDS011;55864;49.238;8.092;2023-11-19T07:25:07;5.43;;;1.60;;
68858;SDS011;55864;49.238;8.092;2023-11-19T07:27:08;3.65;;;1.20;;
68858;SDS011;55864;49.238;8.092;2023-11-19T07:29:11;3.55;;;1.30;;
68858;SDS011;55864;49.238;8.092;2023-11-19T07:31:12;3.97;;;1.30;;
68858;SDS011;55864;49.238;8.092;2023-11-19T07:33:13;4.27;;;1.30;;
68858;SDS011;55864;49.238;8.092;2023-11-19T07:35:15;4.10;;;1.60;;
68858;SDS011;55864;49.238;8.092;2023-11-19T07:37:15;5.00;;;2.00;;
68858;SDS011;55864;49.238;8.092;2023-11-19T07:39:16;5.00;;;1.63;;
68858;SDS011;55864;49.238;8.092;2023-11-19T07:41:16;5.82;;;1.90;;
68858;SDS011;55864;49.238;8.092;2023-11-19T07:43:17;3.70;;;1.40;;
68858;SDS011;55864;49.238;8.092;2023-11-19T07:45:17;4.83;;;1.73;;
68858;SDS011;55864;49.238;8.092;2023-11-19T07:47:18;5.00;;;1.80;;
68858;SDS011;55864;49.238;8.092;2023-11-19T07:49:19;3.80;;;1.50;;
68858;SDS011;55864;49.238;8.092;2023-11-19T07:51:21;5.90;;;1.77;;
68858;SDS011;55864;49.238;8.092;2023-11-19T07:53:21;9.77;;;2.47;;
68858;SDS011;55864;49.238;8.092;2023-11-19T07:55:22;7.30;;;1.90;;
68858;SDS011;55864;49.238;8.092;2023-11-19T07:57:24;7.18;;;1.83;;
68858;SDS011;55864;49.238;8.092;2023-11-19T07:59:25;6.60;;;1.90;;
68858;SDS011;55864;49.238;8.092;2023-11-19T08:01:25;6.93;;;2.07;;
68858;SDS011;55864;49.238;8.092;2023-11-19T08:03:26;5.63;;;1.70;;
68858;SDS011;55864;49.238;8.092;2023-11-19T08:05:26;4.13;;;1.70;;
68858;SDS011;55864;49.238;8.092;2023-11-19T08:07:28;5.43;;;2.10;;
68858;SDS011;55864;49.238;8.092;2023-11-19T08:09:29;5.80;;;2.20;;
68858;SDS011;55864;49.238;8.092;2023-11-19T08:11:29;6.87;;;1.60;;
68858;SDS011;55864;49.238;8.092;2023-11-19T08:13:30;7.15;;;2.00;;
68858;SDS011;55864;49.238;8.092;2023-11-19T08:15:33;5.53;;;1.80;;
68858;SDS011;55864;49.238;8.092;2023-11-19T08:17:33;4.18;;;1.67;;
68858;SDS011;55864;49.238;8.092;2023-11-19T08:19:34;4.53;;;1.67;;
68858;SDS011;55864;49.238;8.092;2023-11-19T08:21:34;5.73;;;1.70;;
68858;SDS011;55864;49.238;8.092;2023-11-19T08:23:37;6.63;;;1.70;;
68858;SDS011;55864;49.238;8.092;2023-11-19T08:25:37;4.28;;;1.60;;
68858;SDS011;55864;49.238;8.092;2023-11-19T08:27:38;5.20;;;1.70;;
68858;SDS011;55864;49.238;8.092;2023-11-19T08:29:38;6.38;;;1.77;;
68858;SDS011;55864;49.238;8.092;2023-11-19T08:31:39;6.70;;;2.08;;
68858;SDS011;55864;49.238;8.092;2023-11-19T08:33:39;5.22;;;1.75;;
68858;SDS011;55864;49.238;8.092;2023-11-19T08:35:40;4.97;;;1.83;;
68858;SDS011;55864;49.238;8.092;2023-11-19T08:37:41;4.28;;;1.70;;
68858;SDS011;55864;49.238;8.092;2023-11-19T08:39:43;6.78;;;1.50;;
68858;SDS011;55864;49.238;8.092;2023-11-19T08:41:43;3.95;;;1.30;;
68858;SDS011;55864;49.238;8.092;2023-11-19T08:43:44;4.38;;;1.45;;
68858;SDS011;55864;49.238;8.092;2023-11-19T08:45:45;4.78;;;1.80;;
68858;SDS011;55864;49.238;8.092;2023-11-19T08:47:45;8.05;;;2.00;;
68858;SDS011;55864;49.238;8.092;2023-11-19T08:49:45;7.95;;;2.80;;
68858;SDS011;55864;49.238;8.092;2023-11-19T08:51:46;7.63;;;2.50;;
68858;SDS011;55864;49.238;8.092;2023-11-19T08:53:46;5.75;;;1.67;;
68858;SDS011;55864;49.238;8.092;2023-11-19T08:55:48;8.00;;;2.03;;
68858;SDS011;55864;49.238;8.092;2023-11-19T08:57:49;7.72;;;1.85;;
68858;SDS011;55864;49.238;8.092;2023-11-19T08:59:52;6.90;;;1.70;;
68858;SDS011;55864;49.238;8.092;2023-11-19T09:01:55;6.53;;;1.60;;
68858;SDS011;55864;49.238;8.092;2023-11-19T09:03:56;6.25;;;1.58;;
68858;SDS011;55864;49.238;8.092;2023-11-19T09:05:57;6.93;;;1.50;;
68858;SDS011;55864;49.238;8.092;2023-11-19T09:07:59;5.25;;;1.50;;
68858;SDS011;55864;49.238;8.092;2023-11-19T09:10:00;5.93;;;1.63;;
68858;SDS011;55864;49.238;8.092;2023-11-19T09:12:02;5.80;;;1.67;;
68858;SDS011;55864;49.238;8.092;2023-11-19T09:14:03;6.57;;;1.80;;
68858;SDS011;55864;49.238;8.092;2023-11-19T09:16:03;6.72;;;2.22;;
68858;SDS011;55864;49.238;8.092;2023-11-19T09:18:05;6.18;;;1.60;;
68858;SDS011;55864;49.238;8.092;2023-11-19T09:20:06;3.88;;;1.40;;
68858;SDS011;55864;49.238;8.092;2023-11-19T09:22:07;4.82;;;1.42;;
68858;SDS011;55864;49.238;8.092;2023-11-19T09:24:07;7.47;;;1.92;;
68858;SDS011;55864;49.238;8.092;2023-11-19T09:26:08;5.15;;;1.60;;
68858;SDS011;55864;49.238;8.092;2023-11-19T09:28:10;4.93;;;1.38;;
68858;SDS011;55864;49.238;8.092;2023-11-19T09:30:11;4.25;;;1.33;;
68858;SDS011;55864;49.238;8.092;2023-11-19T09:32:12;4.90;;;1.50;;
68858;SDS011;55864;49.238;8.092;2023-11-19T09:34:13;4.68;;;1.58;;
68858;SDS011;55864;49.238;8.092;2023-11-19T09:36:13;4.70;;;1.40;;
68858;SDS011;55864;49.238;8.092;2023-11-19T09:38:14;4.83;;;1.70;;
68858;SDS011;55864;49.238;8.092;2023-11-19T09:40:14;5.13;;;1.45;;
68858;SDS011;55864;49.238;8.092;2023-11-19T09:42:15;4.15;;;1.50;;
68858;SDS011;55864;49.238;8.092;2023-11-19T09:44:17;5.88;;;1.60;;
68858;SDS011;55864;49.238;8.092;2023-11-19T09:46:18;5.15;;;1.60;;
68858;SDS011;55864;49.238;8.092;2023-11-19T09:48:19;5.68;;;1.40;;
68858;SDS011;55864;49.238;8.092;2023-11-19T09:50:20;6.95;;;1.55;;
68858;SDS011;55864;49.238;8.092;2023-11-19T09:52:21;6.22;;;1.45;;
68858;SDS011;55864;49.238;8.092;2023-11-19T09:54:21;6.93;;;1.40;;
68858;SDS011;55864;49.238;8.092;2023-11-19T09:56:22;8.10;;;1.92;;
68858;SDS011;55864;49.238;8.092;2023-11-19T09:58:23;7.45;;;1.60;;
68858;SDS011;55864;49.238;8.092;2023-11-19T10:00:25;6.43;;;1.65;;
68858;SDS011;55864;49.238;8.092;2023-11-19T10:02:26;6.72;;;1.50;;
68858;SDS011;55864;49.238;8.092;2023-11-19T10:04:29;3.22;;;1.35;;
68858;SDS011;55864;49.238;8.092;2023-11-19T10:06:35;5.80;;;1.50;;
68858;SDS011;55864;49.238;8.092;2023-11-19T10:08:36;4.10;;;1.80;;
68858;SDS011;55864;49.238;8.092;2023-11-19T10:10:37;6.00;;;1.85;;
68858;SDS011;55864;49.238;8.092;2023-11-19T10:12:38;4.78;;;1.40;;
68858;SDS011;55864;49.238;8.092;2023-11-19T10:14:39;2.83;;;1.20;;
68858;SDS011;55864;49.238;8.092;2023-11-19T10:16:43;3.63;;;1.30;;
68858;SDS011;55864;49.238;8.092;2023-11-19T10:18:44;4.13;;;1.20;;
68858;SDS011;55864;49.238;8.092;2023-11-19T10:20:48;4.22;;;1.35;;
68858;SDS011;55864;49.238;8.092;2023-11-19T10:22:52;4.13;;;1.70;;
68858;SDS011;55864;49.238;8.092;2023-11-19T10:24:53;3.20;;;1.30;;
68858;SDS011;55864;49.238;8.092;2023-11-19T10:26:54;7.55;;;1.60;;
68858;SDS011;55864;49.238;8.092;2023-11-19T10:28:56;6.43;;;2.05;;
68858;SDS011;55864;49.238;8.092;2023-11-19T10:30:57;4.30;;;1.40;;
68858;SDS011;55864;49.238;8.092;2023-11-19T10:33:05;4.75;;;1.52;;
68858;SDS011;55864;49.238;8.092;2023-11-19T10:35:07;4.90;;;1.58;;
68858;SDS011;55864;49.238;8.092;2023-11-19T10:37:08;5.20;;;1.60;;
68858;SDS011;55864;49.238;8.092;2023-11-19T10:39:08;5.28;;;1.40;;
68858;SDS011;55864;49.238;8.092;2023-11-19T10:41:09;3.75;;;1.23;;
68858;SDS011;55864;49.238;8.092;2023-11-19T10:43:10;5.85;;;1.52;;
68858;SDS011;55864;49.238;8.092;2023-11-19T10:45:21;4.13;;;1.40;;
68858;SDS011;55864;49.238;8.092;2023-11-19T10:47:22;6.38;;;1.83;;
68858;SDS011;55864;49.238;8.092;2023-11-19T10:49:24;4.32;;;1.60;;
68858;SDS011;55864;49.238;8.092;2023-11-19T10:51:25;6.97;;;1.58;;
68858;SDS011;55864;49.238;8.092;2023-11-19T10:53:26;4.35;;;1.60;;
68858;SDS011;55864;49.238;8.092;2023-11-19T10:55:27;5.22;;;1.50;;
68858;SDS011;55864;49.238;8.092;2023-11-19T10:57:29;4.00;;;1.35;;
68858;SDS011;55864;49.238;8.092;2023-11-19T10:59:32;3.88;;;1.40;;
68858;SDS011;55864;49.238;8.092;2023-11-19T11:01:34;4.88;;;1.30;;
68858;SDS011;55864;49.238;8.092;2023-11-19T11:03:40;4.78;;;1.10;;
68858;SDS011;55864;49.238;8.092;2023-11-19T11:05:42;3.05;;;1.08;;
68858;SDS011;55864;49.238;8.092;2023-11-19T11:07:43;4.55;;;1.20;;
68858;SDS011;55864;49.238;8.092;2023-11-19T11:09:44;7.40;;;1.50;;
68858;SDS011;55864;49.238;8.092;2023-11-19T11:11:46;17.50;;;7.38;;
68858;SDS011;55864;49.238;8.092;2023-11-19T11:13:47;7.33;;;2.30;;
68858;SDS011;55864;49.238;8.092;2023-11-19T11:15:50;4.38;;;1.40;;
68858;SDS011;55864;49.238;8.092;2023-11-19T11:17:51;4.15;;;1.60;;
68858;SDS011;55864;49.238;8.092;2023-11-19T11:19:57;8.25;;;2.00;;
68858;SDS011;55864;49.238;8.092;2023-11-19T11:21:59;5.10;;;2.20;;
68858;SDS011;55864;49.238;8.092;2023-11-19T11:24:14;5.43;;;1.60;;
68858;SDS011;55864;49.238;8.092;2023-11-19T11:26:35;5.43;;;1.50;;
68858;SDS011;55864;49.238;8.092;2023-11-19T11:28:52;5.30;;;1.70;;
68858;SDS011;55864;49.238;8.092;2023-11-19T11:31:04;4.55;;;1.27;;
68858;SDS011;55864;49.238;8.092;2023-11-19T11:33:21;4.10;;;1.30;;
68858;SDS011;55864;49.238;8.092;2023-11-19T11:35:30;3.90;;;1.40;;
68858;SDS011;55864;49.238;8.092;2023-11-19T11:37:43;4.63;;;1.50;;
68858;SDS011;55864;49.238;8.092;2023-11-19T11:39:49;6.50;;;1.58;;
68858;SDS011;55864;49.238;8.092;2023-11-19T11:44:36;4.72;;;1.40;;
68858;SDS011;55864;49.238;8.092;2023-11-19T11:46:59;6.68;;;1.80;;
68858;SDS011;55864;49.238;8.092;2023-11-19T11:49:00;5.45;;;1.60;;
68858;SDS011;55864;49.238;8.092;2023-11-19T11:51:02;5.63;;;1.38;;
68858;SDS011;55864;49.238;8.092;2023-11-19T11:53:19;3.08;;;1.20;;
68858;SDS011;55864;49.238;8.092;2023-11-19T11:55:23;4.95;;;1.48;;
68858;SDS011;55864;49.238;8.092;2023-11-19T11:57:24;6.47;;;1.67;;
68858;SDS011;55864;49.238;8.092;2023-11-19T11:59:37;4.50;;;1.38;;
68858;SDS011;55864;49.238;8.092;2023-11-19T12:01:55;4.57;;;1.30;;
68858;SDS011;55864;49.238;8.092;2023-11-19T12:03:57;8.52;;;1.52;;
68858;SDS011;55864;49.238;8.092;2023-11-19T12:05:58;5.25;;;1.40;;
68858;SDS011;55864;49.238;8.092;2023-11-19T12:07:59;5.47;;;1.30;;
68858;SDS011;55864;49.238;8.092;2023-11-19T12:10:06;4.00;;;1.20;;
68858;SDS011;55864;49.238;8.092;2023-11-19T12:12:18;4.90;;;1.33;;
68858;SDS011;55864;49.238;8.092;2023-11-19T12:14:34;4.25;;;1.40;;
68858;SDS011;55864;49.238;8.092;2023-11-19T12:17:03;4.88;;;1.75;;
68858;SDS011;55864;49.238;8.092;2023-11-19T12:19:03;6.25;;;1.42;;
68858;SDS011;55864;49.238;8.092;2023-11-19T12:21:04;4.68;;;1.20;;